createdAt,value
2023-05-03T00:01:13.078Z,8.00
2023-05-03T00:03:40.223Z,8.32
2023-05-03T00:06:25.647Z,8.40
2023-05-03T00:08:52.835Z,7.60
2023-05-03T00:11:19.972Z,9.88
2023-05-03T00:13:47.138Z,10.93
2023-05-03T00:16:14.307Z,11.40
2023-05-03T00:18:41.446Z,8.35
2023-05-03T00:21:08.605Z,10.93
2023-05-03T00:23:35.784Z,9.30
2023-05-03T00:26:02.957Z,11.55
2023-05-03T00:28:30.057Z,11.20
2023-05-03T00:30:57.241Z,10.77
2023-05-03T00:33:24.384Z,15.55
2023-05-03T00:35:51.467Z,13.98
2023-05-03T00:38:18.570Z,12.88
2023-05-03T00:40:46.404Z,12.90
2023-05-03T00:43:13.807Z,13.90
2023-05-03T00:45:41.127Z,10.88
2023-05-03T00:48:08.364Z,13.80
2023-05-03T00:50:37.404Z,12.73
2023-05-03T00:53:04.873Z,13.48
2023-05-03T00:55:32.027Z,12.43
2023-05-03T00:57:59.260Z,13.88
2023-05-03T01:00:26.465Z,11.30
2023-05-03T01:02:54.742Z,12.00
2023-05-03T01:05:22.849Z,13.68
2023-05-03T01:07:56.546Z,13.38
2023-05-03T01:10:32.136Z,13.23
2023-05-03T01:13:05.359Z,12.48
2023-05-03T01:15:32.447Z,14.40
2023-05-03T01:18:02.291Z,18.27
2023-05-03T01:20:30.966Z,12.43
2023-05-03T01:23:01.074Z,14.98
2023-05-03T01:25:28.247Z,12.75
2023-05-03T01:27:55.404Z,15.27
2023-05-03T01:30:24.116Z,15.07
2023-05-03T01:33:10.020Z,11.95
2023-05-03T01:35:39.989Z,18.83
2023-05-03T01:38:08.029Z,14.45
2023-05-03T01:40:39.497Z,18.70
2023-05-03T01:43:07.552Z,14.98
2023-05-03T01:45:34.691Z,15.82
2023-05-03T01:48:02.987Z,17.60
2023-05-03T01:50:30.135Z,15.98
2023-05-03T01:52:57.227Z,14.05
2023-05-03T01:55:24.297Z,18.55
2023-05-03T01:57:51.447Z,17.90
2023-05-03T02:00:18.646Z,16.23
2023-05-03T02:02:45.998Z,15.85
2023-05-03T02:05:13.218Z,15.40
2023-05-03T02:07:40.891Z,14.48
2023-05-03T02:10:08.358Z,16.35
2023-05-03T02:12:35.512Z,14.43
2023-05-03T02:15:02.656Z,16.15
2023-05-03T02:17:29.785Z,20.85
2023-05-03T02:19:57.065Z,15.95
2023-05-03T02:22:24.192Z,15.88
2023-05-03T02:24:51.392Z,16.67
2023-05-03T02:27:18.588Z,20.83
2023-05-03T02:29:45.716Z,19.08
2023-05-03T02:32:12.895Z,14.77
2023-05-03T02:34:39.988Z,19.35
2023-05-03T02:37:07.113Z,18.13
2023-05-03T02:39:34.170Z,20.50
2023-05-03T02:42:02.486Z,20.27
2023-05-03T02:44:30.412Z,20.60
2023-05-03T02:46:59.001Z,21.73
2023-05-03T02:49:26.284Z,21.95
2023-05-03T02:51:53.546Z,18.10
2023-05-03T02:54:20.693Z,24.65
2023-05-03T02:56:47.813Z,17.02
2023-05-03T02:59:14.897Z,18.75
2023-05-03T03:01:42.000Z,23.13
2023-05-03T03:04:09.429Z,21.80
2023-05-03T03:06:36.668Z,19.02
2023-05-03T03:09:04.730Z,19.70
2023-05-03T03:11:31.923Z,107.53
2023-05-03T03:13:58.992Z,22.35
2023-05-03T03:16:26.154Z,22.23
2023-05-03T03:18:53.323Z,21.30
2023-05-03T03:21:20.489Z,22.02
2023-05-03T03:23:48.232Z,20.77
2023-05-03T03:26:15.388Z,22.23
2023-05-03T03:28:42.474Z,19.67
2023-05-03T03:31:09.638Z,22.55
2023-05-03T03:33:36.781Z,22.20
2023-05-03T03:36:06.601Z,19.10
2023-05-03T03:38:33.704Z,23.02
2023-05-03T03:41:00.788Z,25.73
2023-05-03T03:43:28.040Z,26.90
2023-05-03T03:45:55.205Z,25.85
2023-05-03T03:48:22.356Z,29.42
2023-05-03T03:50:49.926Z,32.45
2023-05-03T03:53:17.116Z,54.25
2023-05-03T03:55:44.277Z,63.95
2023-05-03T03:58:11.395Z,64.93
2023-05-03T04:00:38.541Z,40.13
2023-05-03T04:03:07.894Z,30.83
2023-05-03T04:05:35.558Z,29.00
2023-05-03T04:08:02.687Z,28.40
2023-05-03T04:10:29.809Z,29.38
2023-05-03T04:12:56.887Z,26.98
2023-05-03T04:15:24.076Z,28.38
2023-05-03T04:17:51.247Z,27.33
2023-05-03T04:20:19.218Z,23.15
2023-05-03T04:22:46.382Z,25.70
2023-05-03T04:25:19.620Z,24.80
2023-05-03T04:27:48.781Z,24.38
2023-05-03T04:30:17.532Z,27.83
2023-05-03T04:32:44.761Z,24.45
2023-05-03T04:35:12.498Z,24.02
2023-05-03T04:37:43.276Z,26.05
2023-05-03T04:40:12.261Z,22.27
2023-05-03T04:42:40.041Z,21.27
2023-05-03T04:45:09.751Z,27.55
2023-05-03T04:47:37.198Z,25.83
2023-05-03T04:50:04.727Z,23.52
2023-05-03T04:52:32.773Z,24.13
2023-05-03T04:54:59.883Z,23.95
2023-05-03T04:57:27.057Z,22.48
2023-05-03T04:59:54.224Z,20.75
2023-05-03T05:02:21.748Z,21.90
2023-05-03T05:04:49.117Z,19.73
2023-05-03T05:07:16.286Z,19.23
2023-05-03T05:09:43.373Z,20.17
2023-05-03T05:12:10.590Z,18.45
2023-05-03T05:14:37.752Z,17.35
2023-05-03T05:17:04.954Z,17.02
2023-05-03T05:19:32.169Z,18.58
2023-05-03T05:21:59.290Z,18.05
2023-05-03T05:24:26.434Z,21.70
2023-05-03T05:26:53.590Z,20.30
2023-05-03T05:29:20.688Z,19.10
2023-05-03T05:31:47.812Z,13.55
2023-05-03T05:34:14.998Z,18.95
2023-05-03T05:36:42.241Z,15.18
2023-05-03T05:39:10.123Z,12.70
2023-05-03T05:41:37.205Z,18.02
2023-05-03T05:44:04.392Z,15.18
2023-05-03T05:46:31.797Z,16.92
2023-05-03T05:48:59.007Z,15.38
2023-05-03T05:51:27.906Z,15.95
2023-05-03T05:53:55.024Z,15.77
2023-05-03T05:56:22.181Z,14.68
2023-05-03T05:58:49.639Z,15.80
2023-05-03T06:01:16.813Z,16.40
2023-05-03T06:03:43.870Z,14.27
2023-05-03T06:06:11.055Z,13.88
2023-05-03T06:08:38.208Z,18.13
2023-05-03T06:11:05.335Z,15.32
2023-05-03T06:13:34.580Z,17.35
2023-05-03T06:16:02.515Z,15.65
2023-05-03T06:18:29.662Z,15.52
2023-05-03T06:20:57.198Z,15.02
2023-05-03T06:23:24.351Z,13.75
2023-05-03T06:25:51.441Z,16.98
2023-05-03T06:28:18.737Z,15.30
2023-05-03T06:30:49.573Z,17.63
2023-05-03T06:33:16.748Z,14.68
2023-05-03T06:35:43.931Z,14.95
2023-05-03T06:38:12.098Z,13.57
2023-05-03T06:40:41.344Z,14.25
2023-05-03T06:43:08.745Z,13.27
2023-05-03T06:45:35.938Z,11.15
2023-05-03T06:48:03.148Z,13.23
2023-05-03T06:50:30.742Z,10.73
2023-05-03T06:52:57.896Z,14.48
2023-05-03T06:55:25.018Z,12.52
2023-05-03T06:57:53.020Z,14.30
2023-05-03T07:00:21.610Z,15.88
2023-05-03T07:02:48.838Z,13.20
2023-05-03T07:05:16.305Z,11.60
2023-05-03T07:07:43.443Z,15.55
2023-05-03T07:10:10.691Z,12.73
2023-05-03T07:12:37.843Z,11.02
2023-05-03T07:15:05.092Z,11.05
2023-05-03T07:17:32.390Z,10.82
2023-05-03T07:20:00.516Z,11.70
2023-05-03T07:22:28.161Z,11.43
2023-05-03T07:24:55.855Z,14.98
2023-05-03T07:27:23.093Z,9.80
2023-05-03T07:29:50.373Z,13.85
2023-05-03T07:32:17.570Z,11.32
2023-05-03T07:34:44.801Z,14.55
2023-05-03T07:37:12.062Z,14.13
2023-05-03T07:39:40.005Z,13.60
2023-05-03T07:42:07.645Z,12.75
2023-05-03T07:44:34.917Z,14.43
2023-05-03T07:47:02.098Z,13.80
2023-05-03T07:49:29.296Z,11.57
2023-05-03T07:51:56.449Z,11.75
2023-05-03T07:54:23.521Z,13.52
2023-05-03T07:56:51.077Z,14.32
2023-05-03T07:59:18.204Z,15.52
2023-05-03T08:01:45.773Z,17.38
2023-05-03T08:04:12.985Z,17.45
2023-05-03T08:06:40.434Z,13.73
2023-05-03T08:09:07.844Z,13.65
2023-05-03T08:11:35.088Z,13.55
2023-05-03T08:14:02.226Z,13.73
2023-05-03T08:16:29.431Z,12.55
2023-05-03T08:18:56.767Z,12.35
2023-05-03T08:21:25.126Z,13.63
2023-05-03T08:23:53.271Z,12.05
2023-05-03T08:26:22.027Z,15.73
2023-05-03T08:28:49.159Z,12.68
2023-05-03T08:31:16.701Z,12.63
2023-05-03T08:33:43.893Z,13.20
2023-05-03T08:36:11.036Z,13.00
2023-05-03T08:38:41.314Z,14.43
2023-05-03T08:41:15.624Z,12.98
2023-05-03T08:43:45.348Z,15.75
2023-05-03T08:46:13.576Z,14.70
2023-05-03T08:48:41.068Z,16.25
2023-05-03T08:51:09.334Z,14.88
2023-05-03T08:53:36.455Z,14.30
2023-05-03T08:56:07.164Z,16.23
2023-05-03T08:58:37.697Z,14.57
2023-05-03T09:01:08.832Z,12.38
2023-05-03T09:03:37.055Z,14.00
2023-05-03T09:06:06.262Z,14.70
2023-05-03T09:08:43.432Z,13.57
2023-05-03T09:11:21.240Z,13.20
2023-05-03T09:13:48.344Z,15.52
2023-05-03T09:16:23.195Z,13.40
2023-05-03T09:19:03.218Z,14.90
2023-05-03T09:21:33.834Z,12.43
2023-05-03T09:24:01.738Z,13.50
2023-05-03T09:26:29.888Z,13.15
2023-05-03T09:28:58.584Z,11.13
2023-05-03T09:31:25.725Z,12.60
2023-05-03T09:33:53.490Z,12.32
2023-05-03T09:36:20.700Z,10.70
2023-05-03T09:38:47.936Z,10.93
2023-05-03T09:41:15.941Z,10.45
2023-05-03T09:43:55.121Z,13.30
2023-05-03T09:46:24.731Z,10.55
2023-05-03T09:48:54.243Z,10.98
2023-05-03T09:51:23.034Z,11.25
2023-05-03T09:53:50.524Z,10.93
2023-05-03T09:56:20.689Z,13.27
2023-05-03T09:58:47.781Z,13.77
2023-05-03T10:01:16.592Z,12.13
2023-05-03T10:03:44.887Z,10.95
2023-05-03T10:06:32.656Z,12.18
2023-05-03T10:09:20.774Z,10.25
2023-05-03T10:11:59.292Z,14.40
2023-05-03T10:14:26.830Z,13.75
2023-05-03T10:16:58.971Z,10.63
2023-05-03T10:19:30.063Z,10.88
2023-05-03T10:22:04.673Z,11.23
2023-05-03T10:24:32.054Z,9.52
2023-05-03T10:26:59.421Z,9.18
2023-05-03T10:29:45.825Z,9.18
2023-05-03T10:32:31.522Z,10.68
2023-05-03T10:34:58.817Z,9.23
2023-05-03T10:37:27.122Z,11.05
2023-05-03T10:39:54.700Z,8.05
2023-05-03T10:42:28.438Z,7.45
2023-05-03T10:44:55.986Z,8.30
2023-05-03T10:47:24.397Z,8.35
2023-05-03T10:50:10.755Z,7.70
2023-05-03T10:52:40.946Z,7.88
2023-05-03T10:55:15.358Z,8.93
2023-05-03T10:57:43.939Z,9.35
2023-05-03T11:00:17.511Z,8.82
2023-05-03T11:03:03.716Z,8.63
2023-05-03T11:05:31.573Z,10.25
2023-05-03T11:08:30.565Z,9.40
2023-05-03T11:10:59.726Z,12.55
2023-05-03T11:13:27.319Z,11.27
2023-05-03T11:15:56.041Z,8.40
2023-05-03T11:18:23.806Z,7.72
2023-05-03T11:20:53.719Z,7.75
2023-05-03T11:23:25.555Z,7.30
2023-05-03T11:25:52.861Z,8.50
2023-05-03T11:28:20.024Z,7.20
2023-05-03T11:30:47.516Z,8.32
2023-05-03T11:33:14.762Z,8.65
2023-05-03T11:35:42.824Z,13.55
2023-05-03T11:38:10.409Z,8.63
2023-05-03T11:40:39.561Z,9.15
2023-05-03T11:43:09.680Z,7.70
2023-05-03T11:45:47.010Z,6.07
2023-05-03T11:48:14.739Z,8.25
2023-05-03T11:50:58.027Z,8.73
2023-05-03T11:53:26.317Z,7.45
2023-05-03T11:55:54.055Z,9.07
2023-05-03T11:58:22.615Z,8.60
2023-05-03T12:00:50.619Z,6.70
2023-05-03T12:03:21.920Z,6.85
2023-05-03T12:05:51.432Z,6.00
2023-05-03T12:08:21.710Z,7.72
2023-05-03T12:10:53.079Z,6.65
2023-05-03T12:13:34.695Z,7.47
2023-05-03T12:18:55.719Z,7.80
2023-05-03T12:23:56.687Z,7.25
2023-05-03T12:26:26.367Z,7.38
2023-05-03T12:28:56.004Z,5.35
2023-05-03T12:31:23.842Z,7.00
2023-05-03T12:36:24.881Z,6.45
2023-05-03T12:38:56.062Z,8.13
2023-05-03T12:43:58.595Z,6.32
2023-05-03T12:46:34.599Z,5.40
2023-05-03T12:49:06.455Z,6.70
2023-05-03T12:51:34.984Z,4.93
2023-05-03T12:54:02.679Z,6.85
2023-05-03T12:56:32.740Z,5.80
2023-05-03T13:06:36.382Z,5.30
2023-05-03T13:09:08.874Z,6.43
2023-05-03T13:11:36.433Z,6.00
2023-05-03T13:14:04.233Z,6.28
2023-05-03T13:16:32.339Z,6.07
2023-05-03T13:18:59.545Z,6.60
2023-05-03T13:21:28.063Z,6.22
2023-05-03T13:23:55.238Z,6.95
2023-05-03T13:26:22.412Z,5.38
2023-05-03T13:28:50.116Z,7.15
2023-05-03T13:31:17.780Z,5.75
2023-05-03T13:33:45.029Z,7.70
2023-05-03T13:36:12.172Z,5.13
2023-05-03T13:38:41.853Z,4.55
2023-05-03T13:41:09.008Z,7.43
2023-05-03T13:43:36.268Z,5.25
2023-05-03T13:46:03.560Z,5.80
2023-05-03T13:48:32.418Z,5.82
2023-05-03T13:51:00.807Z,5.72
2023-05-03T13:53:27.978Z,6.40
2023-05-03T13:55:55.109Z,4.93
2023-05-03T13:58:22.284Z,5.55
2023-05-03T14:00:50.137Z,5.25
2023-05-03T14:03:18.034Z,5.78
2023-05-03T14:05:45.385Z,5.45
2023-05-03T14:08:12.609Z,4.93
2023-05-03T14:10:40.769Z,7.03
2023-05-03T14:13:08.105Z,6.13
2023-05-03T14:15:47.051Z,4.95
2023-05-03T14:18:17.050Z,4.05
2023-05-03T14:20:47.707Z,4.38
2023-05-03T14:23:15.726Z,4.93
2023-05-03T14:25:44.807Z,7.10
2023-05-03T14:28:13.648Z,4.65
2023-05-03T14:30:40.800Z,4.93
2023-05-03T14:33:10.045Z,6.22
2023-05-03T14:35:37.569Z,4.55
2023-05-03T14:38:06.085Z,4.15
2023-05-03T14:40:33.224Z,5.35
2023-05-03T14:43:00.369Z,6.72
2023-05-03T14:45:27.471Z,4.90
2023-05-03T14:47:54.714Z,5.85
2023-05-03T14:50:21.888Z,4.03
2023-05-03T14:52:49.033Z,5.80
2023-05-03T14:55:16.441Z,5.15
2023-05-03T14:57:43.532Z,6.63
2023-05-03T15:00:15.035Z,4.45
2023-05-03T15:02:43.265Z,6.95
2023-05-03T15:05:11.012Z,4.18
2023-05-03T15:07:38.586Z,5.72
2023-05-03T15:10:06.522Z,4.20
2023-05-03T15:12:34.056Z,5.68
2023-05-03T15:15:01.292Z,4.90
2023-05-03T15:17:28.395Z,2.70
2023-05-03T15:19:55.532Z,5.88
2023-05-03T15:22:22.649Z,4.88
2023-05-03T15:24:49.783Z,3.58
2023-05-03T15:27:16.931Z,4.82
2023-05-03T15:29:44.137Z,3.72
2023-05-03T15:32:11.327Z,6.10
2023-05-03T15:34:39.532Z,4.60
2023-05-03T15:37:07.111Z,6.15
2023-05-03T15:39:34.198Z,4.22
2023-05-03T15:42:02.449Z,5.47
2023-05-03T15:44:29.534Z,4.38
2023-05-03T15:46:56.862Z,6.30
2023-05-03T15:49:25.015Z,4.20
2023-05-03T15:51:52.462Z,5.15
2023-05-03T15:54:19.586Z,5.47
2023-05-03T15:56:47.237Z,7.22
2023-05-03T15:59:15.076Z,4.18
2023-05-03T16:01:42.430Z,4.63
2023-05-03T16:04:09.608Z,5.40
2023-05-03T16:06:36.857Z,6.05
2023-05-03T16:09:05.035Z,6.22
2023-05-03T16:11:32.367Z,4.95
2023-05-03T16:13:59.644Z,5.20
2023-05-03T16:16:27.298Z,4.30
2023-05-03T16:18:54.491Z,5.40
2023-05-03T16:21:21.586Z,6.15
2023-05-03T16:23:48.980Z,5.68
2023-05-03T16:26:17.819Z,5.30
2023-05-03T16:28:45.298Z,5.80
2023-05-03T16:31:13.698Z,4.40
2023-05-03T16:33:40.878Z,3.28
2023-05-03T16:36:08.538Z,9.38
2023-05-03T16:38:35.919Z,4.55
2023-05-03T16:41:03.320Z,4.30
2023-05-03T16:43:32.028Z,4.80
2023-05-03T16:46:00.303Z,5.10
2023-05-03T16:48:28.152Z,5.13
2023-05-03T16:50:55.382Z,5.88
2023-05-03T16:53:22.609Z,4.68
2023-05-03T16:55:49.820Z,7.45
2023-05-03T16:58:17.001Z,4.57
2023-05-03T17:00:44.233Z,4.72
2023-05-03T17:03:11.495Z,4.85
2023-05-03T17:05:38.697Z,6.47
2023-05-03T17:08:08.360Z,5.18
2023-05-03T17:10:39.250Z,6.07
2023-05-03T17:13:06.561Z,6.10
2023-05-03T17:15:33.840Z,4.10
2023-05-03T17:18:04.226Z,6.47
2023-05-03T17:20:32.894Z,4.60
2023-05-03T17:23:00.476Z,5.25
2023-05-03T17:25:27.597Z,4.25
2023-05-03T17:27:54.694Z,5.32
2023-05-03T17:30:21.942Z,7.25
2023-05-03T17:32:49.116Z,5.22
2023-05-03T17:35:16.602Z,5.43
2023-05-03T17:37:43.846Z,4.53
2023-05-03T17:40:11.096Z,5.05
2023-05-03T17:42:38.204Z,8.45
2023-05-03T17:45:05.600Z,7.43
2023-05-03T17:47:32.784Z,7.18
2023-05-03T17:50:00.070Z,5.15
2023-05-03T17:52:27.270Z,4.97
2023-05-03T17:54:54.985Z,4.93
2023-05-03T17:57:22.093Z,7.00
2023-05-03T17:59:49.198Z,8.30
2023-05-03T18:02:17.437Z,6.15
2023-05-03T18:04:44.887Z,9.00
2023-05-03T18:07:12.092Z,6.15
2023-05-03T18:09:39.193Z,6.47
2023-05-03T18:12:06.451Z,5.93
2023-05-03T18:14:36.646Z,6.07
2023-05-03T18:17:03.872Z,4.68
2023-05-03T18:19:31.276Z,7.22
2023-05-03T18:21:58.592Z,6.38
2023-05-03T18:24:25.916Z,7.57
2023-05-03T18:26:53.061Z,9.55
2023-05-03T18:29:20.186Z,7.35
2023-05-03T18:31:47.400Z,10.70
2023-05-03T18:34:14.549Z,15.95
2023-05-03T18:36:41.607Z,7.03
2023-05-03T18:39:08.896Z,7.32
2023-05-03T18:41:37.264Z,12.27
2023-05-03T18:44:04.739Z,9.80
2023-05-03T18:46:32.014Z,14.73
2023-05-03T18:48:59.863Z,16.50
2023-05-03T18:51:28.198Z,12.77
2023-05-03T18:53:55.394Z,13.55
2023-05-03T18:56:22.475Z,15.68
2023-05-03T18:58:49.595Z,13.73
2023-05-03T19:01:16.840Z,10.50
2023-05-03T19:03:43.984Z,10.27
2023-05-03T19:06:11.393Z,8.30
2023-05-03T19:08:38.564Z,8.63
2023-05-03T19:11:09.280Z,9.77
2023-05-03T19:13:36.459Z,10.50
2023-05-03T19:16:04.302Z,7.78
2023-05-03T19:18:31.888Z,7.20
2023-05-03T19:20:59.087Z,8.32
2023-05-03T19:23:26.295Z,6.25
2023-05-03T19:25:53.367Z,8.00
2023-05-03T19:28:20.589Z,6.47
2023-05-03T19:30:51.475Z,7.78
2023-05-03T19:33:19.254Z,6.75
2023-05-03T19:35:46.462Z,5.80
2023-05-03T19:38:14.652Z,5.22
2023-05-03T19:40:41.872Z,6.15
2023-05-03T19:43:09.055Z,7.47
2023-05-03T19:45:42.298Z,6.03
2023-05-03T19:48:10.421Z,6.70
2023-05-03T19:50:37.670Z,8.00
2023-05-03T19:53:04.822Z,8.45
2023-05-03T19:55:32.020Z,8.38
2023-05-03T19:57:59.428Z,8.25
2023-05-03T20:00:29.820Z,6.88
2023-05-03T20:02:57.181Z,9.13
2023-05-03T20:05:24.429Z,7.47
2023-05-03T20:07:52.713Z,7.03
2023-05-03T20:10:19.956Z,5.30
2023-05-03T20:12:47.515Z,8.07
2023-05-03T20:15:14.682Z,9.00
2023-05-03T20:17:41.924Z,7.97
2023-05-03T20:20:12.523Z,9.57
2023-05-03T20:22:39.657Z,6.18
2023-05-03T20:25:07.188Z,7.88
2023-05-03T20:27:34.274Z,7.55
2023-05-03T20:30:03.265Z,7.32
2023-05-03T20:32:30.770Z,10.32
2023-05-03T20:34:57.896Z,8.00
2023-05-03T20:37:25.130Z,7.63
2023-05-03T20:39:52.354Z,10.18
2023-05-03T20:42:19.474Z,7.63
2023-05-03T20:44:47.040Z,7.13
2023-05-03T20:47:14.274Z,8.93
2023-05-03T20:49:42.197Z,6.13
2023-05-03T20:52:09.249Z,7.75
2023-05-03T20:54:37.129Z,8.88
2023-05-03T20:57:04.474Z,6.80
2023-05-03T20:59:31.583Z,7.45
2023-05-03T21:01:58.687Z,6.13
2023-05-03T21:04:26.548Z,7.03
2023-05-03T21:06:53.824Z,6.32
2023-05-03T21:09:20.998Z,4.65
2023-05-03T21:11:48.116Z,7.35
2023-05-03T21:14:15.247Z,7.15
2023-05-03T21:16:42.343Z,8.43
2023-05-03T21:19:09.551Z,5.60
2023-05-03T21:21:36.609Z,6.22
2023-05-03T21:24:03.817Z,5.43
2023-05-03T21:26:31.235Z,7.72
2023-05-03T21:29:00.024Z,6.75
2023-05-03T21:31:27.476Z,7.07
2023-05-03T21:33:54.617Z,7.15
2023-05-03T21:36:21.745Z,7.07
2023-05-03T21:38:52.222Z,5.35
2023-05-03T21:41:19.908Z,6.35
2023-05-03T21:43:47.041Z,5.38
2023-05-03T21:46:14.166Z,5.72
2023-05-03T21:48:41.399Z,6.03
2023-05-03T21:51:08.588Z,6.95
2023-05-03T21:53:35.812Z,5.90
2023-05-03T21:56:02.975Z,6.82
2023-05-03T21:58:30.192Z,6.25
2023-05-03T22:00:57.742Z,6.07
2023-05-03T22:03:25.086Z,6.63
2023-05-03T22:05:52.586Z,4.63
2023-05-03T22:08:19.767Z,6.18
2023-05-03T22:10:46.901Z,6.75
2023-05-03T22:13:14.107Z,4.63
2023-05-03T22:15:41.389Z,6.60
2023-05-03T22:18:08.565Z,6.00
2023-05-03T22:20:35.725Z,5.43
2023-05-03T22:23:03.412Z,5.65
2023-05-03T22:25:32.250Z,7.55
2023-05-03T22:27:59.650Z,5.45
2023-05-03T22:30:27.321Z,6.88
2023-05-03T22:32:54.498Z,8.07
2023-05-03T22:35:21.709Z,8.23
2023-05-03T22:37:48.922Z,6.43
2023-05-03T22:40:16.038Z,6.78
2023-05-03T22:42:43.161Z,5.93
2023-05-03T22:45:10.623Z,6.07
2023-05-03T22:47:37.956Z,7.13
2023-05-03T22:50:06.331Z,5.93
2023-05-03T22:52:33.541Z,5.80
2023-05-03T22:55:01.349Z,4.95
2023-05-03T22:57:28.496Z,5.47
2023-05-03T22:59:56.617Z,6.43
2023-05-03T23:02:23.853Z,6.07
2023-05-03T23:04:51.006Z,7.85
2023-05-03T23:07:18.134Z,9.27
2023-05-03T23:09:48.701Z,6.50
2023-05-03T23:12:15.957Z,12.10
2023-05-03T23:14:45.649Z,7.55
2023-05-03T23:17:13.024Z,8.02
2023-05-03T23:19:40.125Z,7.78
2023-05-03T23:22:07.574Z,6.32
2023-05-03T23:24:35.020Z,5.57
2023-05-03T23:27:02.448Z,8.15
2023-05-03T23:29:29.896Z,7.32
2023-05-03T23:31:57.604Z,8.10
2023-05-03T23:34:25.367Z,7.15
2023-05-03T23:36:52.453Z,8.38
2023-05-03T23:39:19.602Z,9.23
2023-05-03T23:41:46.842Z,10.55
2023-05-03T23:44:14.021Z,8.27
2023-05-03T23:46:41.315Z,7.93
2023-05-03T23:49:08.586Z,9.60
2023-05-03T23:51:35.705Z,7.10
2023-05-03T23:54:03.009Z,9.15
2023-05-03T23:56:30.341Z,8.98
2023-05-03T23:58:57.470Z,10.10
